Time;durP1;ratioP1;P1;durP2;ratioP2;P2;SDS_P1;SDS_P2;PMS_P1;PMS_P2;Temp;Humidity;BMP_temperature;BMP_pressure;BME280_temperature;BME280_humidity;BME280_pressure;Samples;Min_cycle;Max_cycle;Signal;HPM_P1;HPM_P2
2023/11/03 00:00:59;;;;;;;6.53;1.13;;;10.70;99.90;;;;;;5105206;28;20301;-45
2023/11/03 00:03:27;;;;;;;4.23;1.13;;;10.70;99.90;;;;;;5069642;27;20197;-46
2023/11/03 00:05:54;;;;;;;1.17;0.80;;;10.70;99.90;;;;;;5107090;27;20208;-49
2023/11/03 00:08:21;;;;;;;3.00;1.10;;;10.70;99.90;;;;;;5084095;27;20258;-43
2023/11/03 00:10:48;;;;;;;1.10;1.00;;;10.70;99.90;;;;;;5096121;27;20205;-46
2023/11/03 00:13:16;;;;;;;3.03;1.27;;;10.70;99.90;;;;;;5103499;27;20198;-43
2023/11/03 00:15:42;;;;;;;6.07;0.87;;;10.70;99.90;;;;;;5102809;27;20818;-46
2023/11/03 00:18:10;;;;;;;2.93;0.93;;;10.70;99.90;;;;;;5093660;28;20194;-42
2023/11/03 00:20:38;;;;;;;4.97;1.10;;;10.70;99.90;;;;;;5083726;27;20208;-50
2023/11/03 00:23:07;;;;;;;1.63;0.70;;;10.70;99.90;;;;;;5095588;27;20193;-49
2023/11/03 00:25:34;;;;;;;2.20;0.70;;;10.70;99.90;;;;;;5099017;28;20280;-48
2023/11/03 00:28:01;;;;;;;5.17;1.10;;;10.70;99.90;;;;;;5105027;27;20213;-45
2023/11/03 00:30:28;;;;;;;2.30;0.73;;;10.70;99.90;;;;;;5099641;27;23481;-49
2023/11/03 00:32:55;;;;;;;2.43;1.00;;;10.80;99.90;;;;;;5112951;27;20270;-50
2023/11/03 00:35:21;;;;;;;3.97;0.80;;;10.80;99.90;;;;;;5076514;27;20228;-44
2023/11/03 00:37:51;;;;;;;2.20;1.00;;;10.80;99.90;;;;;;5086711;27;20274;-50
2023/11/03 00:40:18;;;;;;;2.30;1.00;;;10.80;99.90;;;;;;5100207;28;20196;-50
2023/11/03 00:42:45;;;;;;;2.37;1.20;;;10.80;99.90;;;;;;5106043;27;20204;-46
2023/11/03 00:45:12;;;;;;;1.67;0.87;;;10.80;99.90;;;;;;5100727;28;20205;-44
2023/11/03 00:47:39;;;;;;;3.67;0.93;;;10.80;99.90;;;;;;5105907;27;20194;-47
2023/11/03 00:50:09;;;;;;;4.40;1.33;;;10.80;99.90;;;;;;5074480;27;20253;-46
2023/11/03 00:52:36;;;;;;;2.03;1.10;;;10.80;99.90;;;;;;5095823;27;20201;-46
2023/11/03 00:55:06;;;;;;;2.60;0.67;;;10.80;99.90;;;;;;5102516;27;20265;-45
2023/11/03 00:57:33;;;;;;;1.70;0.77;;;10.70;99.90;;;;;;5100851;27;20185;-46
2023/11/03 01:00:00;;;;;;;3.27;1.20;;;10.70;99.90;;;;;;5102183;28;20301;-46
2023/11/03 01:02:27;;;;;;;4.03;1.20;;;10.70;99.90;;;;;;5101265;27;20200;-44
2023/11/03 01:04:55;;;;;;;5.67;1.30;;;10.70;99.90;;;;;;5105827;27;20213;-46
2023/11/03 01:07:22;;;;;;;3.50;0.90;;;10.70;99.90;;;;;;5069140;27;20406;-48
2023/11/03 01:09:49;;;;;;;3.63;0.90;;;10.70;99.90;;;;;;5103924;27;20340;-45
2023/11/03 01:12:18;;;;;;;4.73;1.10;;;10.70;99.90;;;;;;5101657;27;20193;-44
2023/11/03 01:14:45;;;;;;;1.50;0.67;;;10.70;99.90;;;;;;5105299;27;20252;-49
2023/11/03 01:17:12;;;;;;;2.23;1.00;;;10.60;99.90;;;;;;5102118;27;20197;-47
2023/11/03 01:19:39;;;;;;;3.27;1.07;;;10.60;99.90;;;;;;5104924;27;20197;-46
2023/11/03 01:22:06;;;;;;;1.73;0.83;;;10.60;99.90;;;;;;5077135;27;20220;-48
2023/11/03 01:24:33;;;;;;;0.83;0.83;;;10.60;99.90;;;;;;5096156;27;20966;-52
2023/11/03 01:27:04;;;;;;;5.27;0.90;;;10.60;99.90;;;;;;5101199;28;20225;-43
2023/11/03 01:29:32;;;;;;;1.97;0.90;;;10.60;99.90;;;;;;5104365;27;20895;-47
2023/11/03 01:31:59;;;;;;;2.50;0.83;;;10.50;99.90;;;;;;5103757;27;20192;-43
2023/11/03 01:34:26;;;;;;;0.97;0.73;;;10.50;99.90;;;;;;5101751;27;20213;-47
2023/11/03 01:36:52;;;;;;;3.73;0.83;;;10.50;99.90;;;;;;5073660;27;20728;-49
2023/11/03 01:39:19;;;;;;;2.40;1.00;;;10.50;99.90;;;;;;5087428;28;20859;-46
2023/11/03 01:41:47;;;;;;;2.10;0.60;;;10.40;99.90;;;;;;5106507;27;20204;-48
2023/11/03 01:44:14;;;;;;;1.33;0.80;;;10.40;99.90;;;;;;5098163;28;20751;-44
2023/11/03 01:46:42;;;;;;;4.00;0.93;;;10.40;99.90;;;;;;5103785;27;20268;-45
2023/11/03 01:49:11;;;;;;;3.63;1.20;;;10.30;99.90;;;;;;5101636;27;20197;-44
2023/11/03 01:51:37;;;;;;;1.57;0.70;;;10.30;99.90;;;;;;5073342;27;20225;-44
2023/11/03 01:54:06;;;;;;;3.97;1.17;;;10.20;99.90;;;;;;5101731;27;20224;-42
2023/11/03 01:56:35;;;;;;;2.07;0.93;;;10.20;99.90;;;;;;5105378;27;20209;-46
2023/11/03 01:59:05;;;;;;;4.27;0.90;;;10.20;99.90;;;;;;5099733;28;20571;-45
2023/11/03 02:01:34;;;;;;;6.73;1.03;;;10.20;99.90;;;;;;5099208;27;20189;-47
2023/11/03 02:04:03;;;;;;;3.17;0.90;;;10.20;99.90;;;;;;5098191;27;20213;-43
2023/11/03 02:06:31;;;;;;;2.10;1.10;;;10.20;99.90;;;;;;5102647;28;20212;-46
2023/11/03 02:08:57;;;;;;;2.73;1.00;;;10.10;99.90;;;;;;5064172;28;20641;-48
2023/11/03 02:11:26;;;;;;;4.07;0.90;;;10.10;99.90;;;;;;5092533;28;20213;-45
2023/11/03 02:13:53;;;;;;;0.83;0.73;;;10.10;99.90;;;;;;5102273;28;20638;-45
2023/11/03 02:16:20;;;;;;;3.57;0.97;;;10.00;99.90;;;;;;5102154;28;20995;-45
2023/11/03 02:18:47;;;;;;;2.13;0.70;;;10.00;99.90;;;;;;5100984;28;20876;-44
2023/11/03 02:21:16;;;;;;;3.20;0.80;;;10.00;99.90;;;;;;5085940;28;20246;-46
2023/11/03 02:23:44;;;;;;;3.03;0.80;;;9.90;99.90;;;;;;5066983;28;20680;-46
2023/11/03 02:26:10;;;;;;;2.50;0.80;;;9.90;99.90;;;;;;5086300;28;20223;-48
2023/11/03 02:28:38;;;;;;;1.40;0.73;;;9.90;99.90;;;;;;5100455;28;20205;-47
2023/11/03 02:31:05;;;;;;;2.83;0.80;;;9.90;99.90;;;;;;5097588;28;20793;-47
2023/11/03 02:33:32;;;;;;;4.73;1.00;;;9.90;99.90;;;;;;5101069;28;20205;-46
2023/11/03 02:35:59;;;;;;;1.83;0.90;;;9.80;99.90;;;;;;5098511;28;20220;-43
2023/11/03 02:38:25;;;;;;;1.47;0.80;;;9.80;99.90;;;;;;5102096;28;20738;-48
2023/11/03 02:40:55;;;;;;;3.53;0.80;;;9.80;99.90;;;;;;5068264;28;20197;-46
2023/11/03 02:43:22;;;;;;;2.87;0.90;;;9.80;99.90;;;;;;5099199;27;20256;-46
2023/11/03 02:45:49;;;;;;;0.80;0.70;;;9.70;99.90;;;;;;5106846;27;20189;-44
2023/11/03 02:48:17;;;;;;;1.90;0.80;;;9.70;99.90;;;;;;5103932;28;20198;-48
2023/11/03 02:50:44;;;;;;;1.30;0.87;;;9.70;99.90;;;;;;5107603;27;20240;-47
2023/11/03 02:53:11;;;;;;;5.03;1.00;;;9.70;99.90;;;;;;5101639;28;20349;-47
2023/11/03 02:55:38;;;;;;;4.30;0.90;;;9.70;99.90;;;;;;5069717;28;20285;-45
2023/11/03 02:58:06;;;;;;;2.20;0.73;;;9.70;99.90;;;;;;5091745;27;20197;-47
2023/11/03 03:00:34;;;;;;;1.83;0.80;;;9.70;99.90;;;;;;5106350;28;20201;-48
2023/11/03 03:03:01;;;;;;;1.30;0.80;;;9.70;99.90;;;;;;5102693;28;20250;-43
2023/11/03 03:05:27;;;;;;;1.90;0.60;;;9.70;99.90;;;;;;5106322;27;20208;-45
2023/11/03 03:07:54;;;;;;;4.40;0.90;;;9.60;99.90;;;;;;5103922;28;20193;-46
2023/11/03 03:10:21;;;;;;;3.27;1.20;;;9.60;99.90;;;;;;5070025;28;20240;-49
2023/11/03 03:12:48;;;;;;;2.17;0.70;;;9.60;99.90;;;;;;5101594;28;20198;-44
2023/11/03 03:15:16;;;;;;;1.97;0.77;;;9.60;99.90;;;;;;5096757;28;20303;-45
2023/11/03 03:17:43;;;;;;;0.73;0.50;;;9.60;99.90;;;;;;5106288;28;20659;-48
2023/11/03 03:20:11;;;;;;;2.67;1.50;;;9.60;99.90;;;;;;5100753;28;20190;-46
2023/11/03 03:22:38;;;;;;;3.53;0.73;;;9.60;99.90;;;;;;5104548;28;20205;-44
2023/11/03 03:25:07;;;;;;;1.50;0.60;;;9.60;99.90;;;;;;5101698;28;20286;-46
2023/11/03 03:27:33;;;;;;;3.80;0.73;;;9.60;99.90;;;;;;5072681;28;20691;-45
2023/11/03 03:30:00;;;;;;;1.80;0.97;;;9.60;99.90;;;;;;5091518;28;20315;-44
2023/11/03 03:32:29;;;;;;;3.20;0.93;;;9.60;99.90;;;;;;5105834;28;20667;-45
2023/11/03 03:34:57;;;;;;;1.93;0.63;;;9.70;99.90;;;;;;5101948;28;20225;-44
2023/11/03 03:37:23;;;;;;;1.57;0.57;;;9.70;99.90;;;;;;5104285;28;20222;-44
2023/11/03 03:39:50;;;;;;;1.10;0.73;;;9.70;99.90;;;;;;5104195;28;20193;-43
2023/11/03 03:42:19;;;;;;;3.40;0.90;;;9.60;99.90;;;;;;5067093;28;20197;-48
2023/11/03 03:44:46;;;;;;;1.80;0.97;;;9.60;99.90;;;;;;5093262;28;20329;-45
2023/11/03 03:47:13;;;;;;;4.07;0.87;;;9.70;99.90;;;;;;5102468;28;20848;-47
2023/11/03 03:49:41;;;;;;;1.63;0.80;;;9.60;99.90;;;;;;5104481;28;20254;-44
2023/11/03 03:52:09;;;;;;;2.70;0.83;;;9.70;99.90;;;;;;5100350;28;20247;-45
2023/11/03 03:54:36;;;;;;;3.60;0.93;;;9.60;99.90;;;;;;5102973;28;20304;-46
2023/11/03 03:57:03;;;;;;;4.07;1.20;;;9.60;99.90;;;;;;5069644;28;20213;-43
2023/11/03 03:59:30;;;;;;;7.23;0.97;;;9.60;99.90;;;;;;5101554;28;20204;-44
2023/11/03 04:01:57;;;;;;;3.27;1.40;;;9.60;99.90;;;;;;5090079;28;20834;-44
2023/11/03 04:04:25;;;;;;;3.07;0.90;;;9.60;99.90;;;;;;5103855;28;20221;-48
2023/11/03 04:06:53;;;;;;;3.43;0.80;;;9.60;99.90;;;;;;5103344;28;20185;-43
2023/11/03 04:09:20;;;;;;;6.57;0.80;;;9.60;99.90;;;;;;5104220;27;20278;-45
2023/11/03 04:11:47;;;;;;;2.97;0.70;;;9.60;99.90;;;;;;5099958;27;20201;-46
2023/11/03 04:14:14;;;;;;;5.63;0.77;;;9.50;99.90;;;;;;5074895;28;20209;-43
2023/11/03 04:16:40;;;;;;;3.90;0.80;;;9.50;99.90;;;;;;5095411;27;20233;-45
2023/11/03 04:19:07;;;;;;;3.93;1.37;;;9.60;99.90;;;;;;5103050;27;20198;-45
2023/11/03 04:21:34;;;;;;;2.77;0.73;;;9.50;99.90;;;;;;5104693;28;20185;-42
2023/11/03 04:24:02;;;;;;;2.30;1.03;;;9.50;99.90;;;;;;5100920;28;20217;-47
2023/11/03 04:26:29;;;;;;;1.47;0.70;;;9.50;99.90;;;;;;5106676;27;20198;-49
2023/11/03 04:28:56;;;;;;;2.27;0.80;;;9.50;99.90;;;;;;5056738;27;20326;-44
2023/11/03 04:31:22;;;;;;;5.93;1.00;;;9.50;99.90;;;;;;5094958;28;20266;-50
2023/11/03 04:33:51;;;;;;;4.10;0.90;;;9.60;99.90;;;;;;5092164;28;20240;-44
2023/11/03 04:36:17;;;;;;;6.07;1.57;;;9.50;99.90;;;;;;5096179;28;20298;-47
2023/11/03 04:38:44;;;;;;;3.90;1.20;;;9.50;99.90;;;;;;5103781;28;20254;-46
2023/11/03 04:41:12;;;;;;;1.17;0.77;;;9.50;99.90;;;;;;5099825;27;20197;-45
2023/11/03 04:43:39;;;;;;;3.33;0.90;;;9.50;99.90;;;;;;5104408;28;20217;-48
2023/11/03 04:46:08;;;;;;;3.20;0.97;;;9.50;99.90;;;;;;5069283;28;20181;-45
2023/11/03 04:48:35;;;;;;;5.33;1.00;;;9.50;99.90;;;;;;5090570;28;20200;-42
2023/11/03 04:51:03;;;;;;;2.00;0.87;;;9.50;99.90;;;;;;5099715;28;20185;-46
2023/11/03 04:53:30;;;;;;;6.80;1.00;;;9.50;99.90;;;;;;5104232;27;20552;-48
2023/11/03 04:55:56;;;;;;;3.47;0.80;;;9.50;99.90;;;;;;5096850;28;20286;-42
2023/11/03 04:58:25;;;;;;;4.03;0.83;;;9.50;99.90;;;;;;5097272;28;20194;-44
2023/11/03 05:00:52;;;;;;;2.60;0.90;;;9.50;99.90;;;;;;5054961;28;20642;-45
2023/11/03 05:03:19;;;;;;;2.73;0.70;;;9.50;99.90;;;;;;5094546;28;20247;-44
2023/11/03 05:05:47;;;;;;;4.17;0.97;;;9.50;99.90;;;;;;5088433;28;20224;-46
2023/11/03 05:08:14;;;;;;;4.73;1.10;;;9.50;99.90;;;;;;5102841;28;20254;-42
2023/11/03 05:10:41;;;;;;;5.20;1.00;;;9.40;99.90;;;;;;5097100;28;20190;-45
2023/11/03 05:13:08;;;;;;;3.20;0.83;;;9.40;99.90;;;;;;5103788;28;20205;-47
2023/11/03 05:15:36;;;;;;;4.60;0.87;;;9.40;99.90;;;;;;5067036;28;21846;-46
2023/11/03 05:18:03;;;;;;;1.37;0.80;;;9.40;99.90;;;;;;5093858;28;20189;-45
2023/11/03 05:20:29;;;;;;;2.43;0.70;;;9.50;99.90;;;;;;5089021;27;20236;-46
2023/11/03 05:22:56;;;;;;;4.73;0.70;;;9.50;99.90;;;;;;5095652;28;20213;-45
2023/11/03 05:25:23;;;;;;;2.13;0.90;;;9.50;99.90;;;;;;5087102;28;20309;-43
2023/11/03 05:27:50;;;;;;;2.67;0.80;;;9.60;99.90;;;;;;5095358;28;20204;-49
2023/11/03 05:30:17;;;;;;;1.87;0.83;;;9.60;99.90;;;;;;5100824;27;20250;-45
2023/11/03 05:32:45;;;;;;;2.07;0.80;;;9.60;99.90;;;;;;5071866;28;20250;-46
2023/11/03 05:35:12;;;;;;;2.57;0.80;;;9.60;99.90;;;;;;5088953;28;20234;-46
2023/11/03 05:37:39;;;;;;;2.77;0.73;;;9.60;99.90;;;;;;5090800;27;20618;-47
2023/11/03 05:40:11;;;;;;;3.27;0.80;;;9.60;99.90;;;;;;5097910;28;20189;-43
2023/11/03 05:42:37;;;;;;;4.83;0.77;;;9.60;99.90;;;;;;5100407;28;20255;-46
2023/11/03 05:45:05;;;;;;;2.70;0.80;;;9.60;99.90;;;;;;5093774;28;20217;-43
2023/11/03 05:47:32;;;;;;;2.63;0.80;;;9.60;99.90;;;;;;5070216;27;20193;-45
2023/11/03 05:50:00;;;;;;;5.70;1.33;;;9.60;99.90;;;;;;5101195;28;20197;-44
2023/11/03 05:52:27;;;;;;;4.03;1.03;;;9.60;99.90;;;;;;5082167;28;21323;-43
2023/11/03 05:54:54;;;;;;;1.57;0.90;;;9.60;99.90;;;;;;5096571;28;20603;-46
2023/11/03 05:57:21;;;;;;;2.33;0.90;;;9.60;99.90;;;;;;5093005;28;20221;-48
2023/11/03 05:59:48;;;;;;;2.33;1.10;;;9.60;99.90;;;;;;5096870;28;20198;-47
2023/11/03 06:02:15;;;;;;;5.17;0.90;;;9.60;99.90;;;;;;5086081;28;20197;-45
2023/11/03 06:04:42;;;;;;;5.07;1.17;;;9.60;99.90;;;;;;5067460;28;20224;-49
2023/11/03 06:07:11;;;;;;;4.50;1.00;;;9.60;99.90;;;;;;5089022;28;20728;-45
2023/11/03 06:09:38;;;;;;;4.87;0.77;;;9.60;99.90;;;;;;5089734;28;20676;-43
2023/11/03 06:12:07;;;;;;;4.33;0.93;;;9.60;99.90;;;;;;5095643;28;20190;-45
2023/11/03 06:14:34;;;;;;;4.07;0.90;;;9.60;99.90;;;;;;5099188;28;20715;-44
2023/11/03 06:17:01;;;;;;;2.33;0.80;;;9.60;99.90;;;;;;5089185;28;20278;-42
2023/11/03 06:19:28;;;;;;;3.60;0.87;;;9.50;99.90;;;;;;5066556;28;21673;-45
2023/11/03 06:21:55;;;;;;;2.07;1.10;;;9.50;99.90;;;;;;5094724;28;20221;-44
2023/11/03 06:24:23;;;;;;;6.30;1.00;;;9.50;99.90;;;;;;5083696;28;20507;-47
2023/11/03 06:26:50;;;;;;;3.57;1.30;;;9.60;99.90;;;;;;5096373;28;20189;-46
2023/11/03 06:29:16;;;;;;;4.50;0.90;;;9.50;99.90;;;;;;5093425;28;20910;-44
2023/11/03 06:31:43;;;;;;;5.00;0.97;;;9.60;99.90;;;;;;5098451;28;20190;-51
2023/11/03 06:34:10;;;;;;;3.47;1.07;;;9.60;99.90;;;;;;5087319;28;20217;-44
2023/11/03 06:36:37;;;;;;;3.87;1.03;;;9.60;99.90;;;;;;5071053;28;20297;-49
2023/11/03 06:39:04;;;;;;;2.80;0.83;;;9.70;99.90;;;;;;5083357;27;20682;-43
2023/11/03 06:41:32;;;;;;;3.30;0.90;;;9.70;99.90;;;;;;5099294;28;20211;-48
2023/11/03 06:44:01;;;;;;;1.47;0.90;;;9.80;99.90;;;;;;5098972;28;20289;-43
2023/11/03 06:46:28;;;;;;;4.43;1.07;;;9.80;99.90;;;;;;5096647;28;20246;-49
2023/11/03 06:48:54;;;;;;;4.23;1.17;;;9.80;99.90;;;;;;5086004;28;20250;-51
2023/11/03 06:51:21;;;;;;;5.93;1.30;;;9.80;99.90;;;;;;5061970;28;20795;-45
2023/11/03 06:53:48;;;;;;;5.00;1.10;;;9.80;99.90;;;;;;5085742;28;20225;-42
2023/11/03 06:56:16;;;;;;;5.80;0.90;;;9.80;99.90;;;;;;5069448;28;21353;-43
2023/11/03 06:58:44;;;;;;;5.80;1.60;;;9.80;99.90;;;;;;5083882;28;20216;-47
2023/11/03 07:01:11;;;;;;;2.83;1.10;;;9.80;99.90;;;;;;5091204;28;20197;-43
2023/11/03 07:03:38;;;;;;;6.37;1.00;;;9.80;99.90;;;;;;5087573;28;20226;-44
2023/11/03 07:06:05;;;;;;;4.60;1.07;;;9.70;99.90;;;;;;5071352;28;20662;-45
2023/11/03 07:08:32;;;;;;;9.63;1.53;;;9.80;99.90;;;;;;5097590;28;20190;-43
2023/11/03 07:10:59;;;;;;;4.40;0.90;;;9.80;99.90;;;;;;5082661;28;20309;-45
2023/11/03 07:13:28;;;;;;;4.67;1.10;;;9.80;99.90;;;;;;5093503;28;20197;-44
2023/11/03 07:15:56;;;;;;;6.73;0.90;;;9.80;99.90;;;;;;5092879;28;20224;-45
2023/11/03 07:18:23;;;;;;;4.47;0.93;;;9.80;99.90;;;;;;5085495;28;20213;-43
2023/11/03 07:20:50;;;;;;;2.87;0.90;;;9.80;99.90;;;;;;5086641;28;20395;-42
2023/11/03 07:23:21;;;;;;;4.37;1.33;;;9.90;99.90;;;;;;5067222;28;20218;-48
2023/11/03 07:25:50;;;;;;;5.47;1.17;;;9.80;99.90;;;;;;5079002;28;20250;-45
2023/11/03 07:28:18;;;;;;;4.77;0.80;;;9.90;99.90;;;;;;5092946;28;20198;-46
2023/11/03 07:30:44;;;;;;;3.27;1.07;;;9.90;99.90;;;;;;5083424;28;21014;-45
2023/11/03 07:33:13;;;;;;;2.93;1.10;;;9.90;99.90;;;;;;5092207;28;20205;-42
2023/11/03 07:35:39;;;;;;;5.73;1.10;;;9.90;99.90;;;;;;5102068;27;20213;-45
2023/11/03 07:38:07;;;;;;;2.60;0.90;;;10.00;99.90;;;;;;5074077;27;20204;-41
2023/11/03 07:40:34;;;;;;;2.60;0.80;;;10.00;99.90;;;;;;5097401;27;20197;-47
2023/11/03 07:43:01;;;;;;;3.73;0.80;;;10.00;99.90;;;;;;5078537;27;20876;-42
2023/11/03 07:45:28;;;;;;;3.77;1.20;;;10.00;99.90;;;;;;5097280;28;20225;-41
2023/11/03 07:47:55;;;;;;;2.77;0.70;;;10.00;99.90;;;;;;5093858;27;20197;-45
2023/11/03 07:50:23;;;;;;;2.90;0.83;;;10.10;99.90;;;;;;5090305;27;20217;-47
2023/11/03 07:52:50;;;;;;;2.87;0.90;;;10.10;99.90;;;;;;5060061;27;20217;-44
2023/11/03 07:55:18;;;;;;;5.10;1.13;;;10.10;99.90;;;;;;5105295;28;20221;-45
2023/11/03 07:57:44;;;;;;;3.53;0.90;;;10.10;99.90;;;;;;5086621;27;20321;-43
2023/11/03 08:00:12;;;;;;;4.63;0.97;;;10.10;99.90;;;;;;5094998;28;20309;-49
2023/11/03 08:02:40;;;;;;;4.80;1.67;;;10.10;99.90;;;;;;5084867;28;20249;-47
2023/11/03 08:05:08;;;;;;;4.67;1.03;;;10.20;99.90;;;;;;5087100;28;20213;-45
2023/11/03 08:07:37;;;;;;;3.40;1.40;;;10.20;99.90;;;;;;5084700;28;20193;-47
2023/11/03 08:10:04;;;;;;;3.90;1.10;;;10.20;99.90;;;;;;5103683;28;20208;-46
2023/11/03 08:12:33;;;;;;;3.93;1.17;;;10.20;99.90;;;;;;5087229;28;20205;-45
2023/11/03 08:15:01;;;;;;;5.50;1.10;;;10.30;99.90;;;;;;5093528;28;20221;-45
2023/11/03 08:17:28;;;;;;;2.97;0.87;;;10.20;99.90;;;;;;5102229;27;20231;-42
2023/11/03 08:19:55;;;;;;;2.50;1.10;;;10.20;99.90;;;;;;5097383;27;20839;-44
2023/11/03 08:22:23;;;;;;;3.97;1.10;;;10.20;99.90;;;;;;5096884;27;20200;-45
2023/11/03 08:24:51;;;;;;;3.83;1.30;;;10.20;99.90;;;;;;5069552;28;20362;-45
2023/11/03 08:27:18;;;;;;;1.20;0.80;;;10.20;99.90;;;;;;5094058;28;20220;-46
2023/11/03 08:29:45;;;;;;;2.10;1.00;;;10.20;99.90;;;;;;5085071;28;20193;-43
2023/11/03 08:32:12;;;;;;;5.90;1.33;;;10.30;99.90;;;;;;5106371;27;20217;-43
2023/11/03 08:34:40;;;;;;;2.53;1.20;;;10.30;99.90;;;;;;5094600;27;20823;-43
2023/11/03 08:37:06;;;;;;;2.60;0.90;;;10.30;99.90;;;;;;5098566;28;20290;-43
2023/11/03 08:39:33;;;;;;;3.50;1.40;;;10.30;99.90;;;;;;5077945;27;20270;-45
2023/11/03 08:42:02;;;;;;;3.90;1.30;;;10.30;99.90;;;;;;5109582;27;20262;-43
2023/11/03 08:44:29;;;;;;;2.53;0.90;;;10.40;99.90;;;;;;5093429;27;20225;-46
2023/11/03 08:46:56;;;;;;;4.03;1.23;;;10.40;99.90;;;;;;5110255;27;20270;-45
2023/11/03 08:49:24;;;;;;;3.60;0.70;;;10.40;99.90;;;;;;5096443;28;20202;-49
2023/11/03 08:51:51;;;;;;;5.17;1.00;;;10.40;99.90;;;;;;5090227;28;21276;-43
2023/11/03 08:54:18;;;;;;;2.97;1.10;;;10.30;99.90;;;;;;5067622;27;20248;-47
2023/11/03 08:56:45;;;;;;;5.30;1.17;;;10.30;99.90;;;;;;5099887;28;20193;-43
2023/11/03 08:59:14;;;;;;;3.70;1.00;;;10.30;99.90;;;;;;5091197;28;20213;-44
2023/11/03 09:01:43;;;;;;;2.57;0.80;;;10.30;99.90;;;;;;5095227;28;20231;-43
2023/11/03 09:04:11;;;;;;;3.67;1.23;;;10.30;99.90;;;;;;5101557;27;20220;-45
2023/11/03 09:06:38;;;;;;;1.33;1.10;;;10.30;99.90;;;;;;5090627;28;20204;-46
2023/11/03 09:09:06;;;;;;;4.23;0.93;;;10.30;99.90;;;;;;5094086;27;20566;-44
2023/11/03 09:11:33;;;;;;;2.80;1.07;;;10.30;99.90;;;;;;5065425;28;20201;-45
2023/11/03 09:14:06;;;;;;;3.60;0.80;;;10.30;99.90;;;;;;5087956;28;20344;-47
2023/11/03 09:16:34;;;;;;;4.90;0.97;;;10.30;99.90;;;;;;5087894;28;20231;-45
2023/11/03 09:19:02;;;;;;;2.87;1.10;;;10.30;99.90;;;;;;5096490;27;20221;-44
2023/11/03 09:21:29;;;;;;;2.60;0.93;;;10.20;99.90;;;;;;5094456;28;20209;-46
2023/11/03 09:23:56;;;;;;;4.10;1.10;;;10.30;99.90;;;;;;5091492;28;20225;-46
2023/11/03 09:26:23;;;;;;;4.03;1.20;;;10.30;99.90;;;;;;5069663;27;20223;-44
2023/11/03 09:28:50;;;;;;;4.23;0.90;;;10.30;99.90;;;;;;5095795;28;20185;-45
2023/11/03 09:31:17;;;;;;;4.33;1.23;;;10.30;99.90;;;;;;5088274;27;20210;-44
2023/11/03 09:33:47;;;;;;;1.63;0.83;;;10.30;99.90;;;;;;5091946;28;20257;-45
2023/11/03 09:36:14;;;;;;;5.00;1.10;;;10.30;99.90;;;;;;5085016;28;20228;-44
2023/11/03 09:38:42;;;;;;;3.77;1.00;;;10.30;99.90;;;;;;5086915;28;20228;-47
2023/11/03 09:41:10;;;;;;;2.23;0.67;;;10.30;99.90;;;;;;5073091;27;20201;-44
2023/11/03 09:43:37;;;;;;;4.17;0.80;;;10.40;99.90;;;;;;5099666;28;20707;-45
2023/11/03 09:46:04;;;;;;;4.37;1.07;;;10.40;99.90;;;;;;5090010;28;20220;-43
2023/11/03 09:48:33;;;;;;;3.40;2.03;;;10.40;99.90;;;;;;5092646;28;20200;-45
2023/11/03 09:51:02;;;;;;;4.27;0.80;;;10.40;99.90;;;;;;5095227;28;20815;-44
2023/11/03 09:53:31;;;;;;;2.73;0.83;;;10.40;99.90;;;;;;5090539;28;20201;-46
2023/11/03 09:56:00;;;;;;;3.80;0.83;;;10.50;99.90;;;;;;5071085;28;20213;-45
2023/11/03 09:58:28;;;;;;;2.37;0.83;;;10.50;99.90;;;;;;5097184;28;20839;-47
2023/11/03 10:00:56;;;;;;;3.73;1.00;;;10.40;99.90;;;;;;5088490;28;20269;-43
2023/11/03 10:03:22;;;;;;;4.47;0.97;;;10.50;99.90;;;;;;5091829;28;20238;-45
2023/11/03 10:05:49;;;;;;;2.93;0.90;;;10.50;99.90;;;;;;5090024;27;20852;-45
2023/11/03 10:08:20;;;;;;;3.63;1.03;;;10.50;99.90;;;;;;5090365;27;20209;-46
2023/11/03 10:10:47;;;;;;;2.23;0.90;;;10.50;99.90;;;;;;5088610;28;20196;-44
2023/11/03 10:13:15;;;;;;;2.77;1.40;;;10.50;99.90;;;;;;5076166;27;20211;-44
2023/11/03 10:15:44;;;;;;;2.47;1.37;;;10.50;99.90;;;;;;5094450;28;20217;-43
2023/11/03 10:18:11;;;;;;;1.27;1.20;;;10.50;99.90;;;;;;5082386;28;20223;-43
2023/11/03 10:20:39;;;;;;;4.73;1.47;;;10.50;99.90;;;;;;5089479;28;20205;-44
2023/11/03 10:23:06;;;;;;;2.57;0.80;;;10.50;99.90;;;;;;5095484;28;20201;-44
2023/11/03 10:25:35;;;;;;;4.23;1.07;;;10.60;99.90;;;;;;5092978;28;20703;-47
2023/11/03 10:28:04;;;;;;;4.17;0.90;;;10.60;99.90;;;;;;5068107;28;20743;-44
2023/11/03 10:30:31;;;;;;;3.47;0.87;;;10.60;99.90;;;;;;5096132;28;20281;-49
2023/11/03 10:32:58;;;;;;;1.70;1.30;;;10.70;99.90;;;;;;5087135;28;20283;-48
2023/11/03 10:35:25;;;;;;;5.30;1.30;;;10.70;99.90;;;;;;5096022;28;20217;-44
2023/11/03 10:37:53;;;;;;;2.83;1.00;;;10.80;99.90;;;;;;5089661;28;20225;-45
2023/11/03 10:40:21;;;;;;;4.20;1.00;;;10.90;99.90;;;;;;5092118;28;20730;-45
2023/11/03 10:42:51;;;;;;;2.67;0.90;;;10.90;99.90;;;;;;5064891;28;20217;-47
2023/11/03 10:45:20;;;;;;;2.50;1.00;;;11.00;99.90;;;;;;5102156;28;20205;-46
2023/11/03 10:48:01;;;;;;;2.77;1.00;;;11.00;99.90;;;;;;5085340;28;20208;-44
2023/11/03 10:50:33;;;;;;;2.23;1.20;;;11.10;99.90;;;;;;5092769;28;20193;-44
2023/11/03 10:53:10;;;;;;;3.93;1.00;;;11.30;99.90;;;;;;5095054;28;20308;-46
2023/11/03 10:55:45;;;;;;;3.90;1.10;;;11.30;99.90;;;;;;5090830;28;20224;-43
2023/11/03 10:58:13;;;;;;;2.77;1.40;;;11.20;99.90;;;;;;5065377;28;20214;-45
2023/11/03 11:00:45;;;;;;;4.80;1.30;;;11.30;99.90;;;;;;5094274;28;20186;-41
2023/11/03 11:03:18;;;;;;;5.53;1.43;;;11.30;99.90;;;;;;5097975;28;20250;-43
2023/11/03 11:05:52;;;;;;;3.40;1.10;;;11.20;99.90;;;;;;5090768;28;20225;-45
2023/11/03 11:08:23;;;;;;;2.67;1.20;;;11.20;99.90;;;;;;5091595;28;20558;-44
2023/11/03 11:10:51;;;;;;;6.43;1.17;;;11.20;99.90;;;;;;5087006;27;20298;-41
2023/11/03 11:13:21;;;;;;;1.60;1.50;;;11.20;99.90;;;;;;5073253;27;20733;-45
2023/11/03 11:16:08;;;;;;;2.13;1.20;;;11.20;99.90;;;;;;5099789;28;20193;-43
2023/11/03 11:18:43;;;;;;;4.50;1.50;;;11.30;99.90;;;;;;5099143;28;20213;-43
2023/11/03 11:21:14;;;;;;;1.60;1.33;;;11.40;99.90;;;;;;5105292;27;20266;-46
2023/11/03 11:23:47;;;;;;;3.07;1.23;;;11.40;99.90;;;;;;5086294;28;20221;-45
2023/11/03 11:26:16;;;;;;;3.77;1.77;;;11.30;99.90;;;;;;5103250;28;20204;-49
2023/11/03 11:28:45;;;;;;;2.13;1.60;;;11.30;99.90;;;;;;5059632;27;21864;-45
2023/11/03 11:31:37;;;;;;;3.20;1.40;;;11.20;99.90;;;;;;5100897;28;20197;-48
2023/11/03 11:34:05;;;;;;;8.07;1.90;;;11.20;99.90;;;;;;5086807;27;20307;-49
2023/11/03 11:36:33;;;;;;;1.27;1.17;;;11.20;99.90;;;;;;5094300;27;20279;-42
2023/11/03 11:39:17;;;;;;;5.00;1.50;;;11.30;99.90;;;;;;5091752;28;20266;-51
2023/11/03 11:41:48;;;;;;;5.30;2.13;;;11.30;99.90;;;;;;5092570;28;20237;-44
2023/11/03 11:44:18;;;;;;;3.60;1.60;;;11.30;99.90;;;;;;5062594;27;20221;-52
2023/11/03 11:46:52;;;;;;;2.60;1.50;;;11.40;99.90;;;;;;5094985;28;20293;-43
2023/11/03 11:49:22;;;;;;;5.57;1.67;;;11.40;99.90;;;;;;5097655;28;20190;-41
2023/11/03 11:51:50;;;;;;;4.90;1.70;;;11.40;99.90;;;;;;5085189;28;20201;-41
2023/11/03 11:54:18;;;;;;;5.50;1.93;;;11.40;99.90;;;;;;5091359;28;20205;-42
2023/11/03 11:56:47;;;;;;;3.37;1.63;;;11.50;99.90;;;;;;5088607;28;20262;-42
2023/11/03 11:59:17;;;;;;;2.57;1.23;;;11.50;99.90;;;;;;5087445;27;20220;-46
2023/11/03 12:01:46;;;;;;;2.20;1.00;;;11.50;99.90;;;;;;5072466;27;20209;-44
2023/11/03 12:04:14;;;;;;;6.30;1.40;;;11.60;99.90;;;;;;5094048;28;20206;-49
2023/11/03 12:06:43;;;;;;;2.87;1.47;;;11.60;99.90;;;;;;5085640;28;20201;-46
2023/11/03 12:09:11;;;;;;;1.70;1.30;;;11.60;99.90;;;;;;5096831;28;20185;-48
2023/11/03 12:11:39;;;;;;;4.13;1.30;;;11.60;99.90;;;;;;5097799;28;20197;-47
2023/11/03 12:14:10;;;;;;;6.17;1.27;;;11.70;99.90;;;;;;5087173;28;20595;-48
2023/11/03 12:16:38;;;;;;;3.50;1.30;;;11.60;99.90;;;;;;5071076;27;20224;-44
2023/11/03 12:19:06;;;;;;;4.67;1.27;;;11.60;99.90;;;;;;5102051;28;20209;-46
2023/11/03 12:21:35;;;;;;;2.30;1.30;;;11.60;99.90;;;;;;5101016;28;20189;-43
2023/11/03 12:24:03;;;;;;;1.50;1.30;;;11.60;99.90;;;;;;5090878;27;20233;-51
2023/11/03 12:26:31;;;;;;;3.53;1.60;;;11.60;99.90;;;;;;5095750;28;20197;-46
2023/11/03 12:29:28;;;;;;;3.37;1.00;;;11.60;99.90;;;;;;5085864;28;20254;-51
2023/11/03 12:31:58;;;;;;;5.17;1.20;;;11.60;99.90;;;;;;5100499;28;20250;-45
2023/11/03 12:34:26;;;;;;;3.57;1.30;;;11.60;99.90;;;;;;5072471;28;20206;-45
2023/11/03 12:36:53;;;;;;;4.10;1.27;;;11.60;99.90;;;;;;5103392;28;20276;-47
2023/11/03 12:39:20;;;;;;;5.03;1.30;;;11.50;99.90;;;;;;5087462;28;20213;-46
2023/11/03 12:42:01;;;;;;;6.50;1.53;;;11.50;99.90;;;;;;5093537;28;20675;-46
2023/11/03 12:44:31;;;;;;;2.67;1.10;;;11.60;99.90;;;;;;5078834;28;20225;-52
2023/11/03 12:47:01;;;;;;;2.80;1.33;;;11.60;99.90;;;;;;5099050;28;20192;-44
2023/11/03 12:49:29;;;;;;;1.97;1.10;;;11.60;99.90;;;;;;5063171;27;20194;-51
2023/11/03 12:51:56;;;;;;;1.23;1.03;;;11.60;99.90;;;;;;5098376;28;20879;-47
2023/11/03 12:54:24;;;;;;;2.47;1.50;;;11.50;99.90;;;;;;5088797;28;20221;-49